sensor_id;sensor_type;location;lat;lon;timestamp;pressure;altitude;pressure_sealevel;temperature
12430;BMP280;6279;42.192;24.326;2023-07-16T00:02:05;99163.91;;;26.22
12430;BMP280;6279;42.192;24.326;2023-07-16T00:04:31;99169.78;;;26.19
12430;BMP280;6279;42.192;24.326;2023-07-16T00:06:59;99167.09;;;26.19
12430;BMP280;6279;42.192;24.326;2023-07-16T00:09:25;99167.63;;;26.16
12430;BMP280;6279;42.192;24.326;2023-07-16T00:11:50;99165.19;;;26.10
12430;BMP280;6279;42.192;24.326;2023-07-16T00:14:16;99172.38;;;26.09
12430;BMP280;6279;42.192;24.326;2023-07-16T00:16:42;99162.50;;;26.05
12430;BMP280;6279;42.192;24.326;2023-07-16T00:19:13;99170.50;;;26.00
12430;BMP280;6279;42.192;24.326;2023-07-16T00:21:39;99174.44;;;25.93
12430;BMP280;6279;42.192;24.326;2023-07-16T00:24:04;99178.94;;;25.92
12430;BMP280;6279;42.192;24.326;2023-07-16T00:26:30;99175.47;;;25.87
12430;BMP280;6279;42.192;24.326;2023-07-16T00:28:55;99177.59;;;25.85
12430;BMP280;6279;42.192;24.326;2023-07-16T00:31:21;99175.91;;;25.74
12430;BMP280;6279;42.192;24.326;2023-07-16T00:33:46;99176.97;;;25.73
12430;BMP280;6279;42.192;24.326;2023-07-16T00:36:11;99177.25;;;25.72
12430;BMP280;6279;42.192;24.326;2023-07-16T00:38:37;99172.44;;;25.73
12430;BMP280;6279;42.192;24.326;2023-07-16T00:41:02;99175.91;;;25.69
12430;BMP280;6279;42.192;24.326;2023-07-16T00:43:28;99173.78;;;25.71
12430;BMP280;6279;42.192;24.326;2023-07-16T00:45:53;99178.31;;;25.71
12430;BMP280;6279;42.192;24.326;2023-07-16T00:48:19;99174.00;;;25.65
12430;BMP280;6279;42.192;24.326;2023-07-16T00:50:44;99179.59;;;25.63
12430;BMP280;6279;42.192;24.326;2023-07-16T00:53:10;99175.34;;;25.62
12430;BMP280;6279;42.192;24.326;2023-07-16T00:55:36;99172.13;;;25.60
12430;BMP280;6279;42.192;24.326;2023-07-16T00:58:06;99168.94;;;25.58
12430;BMP280;6279;42.192;24.326;2023-07-16T01:00:36;99169.97;;;25.57
12430;BMP280;6279;42.192;24.326;2023-07-16T01:03:03;99163.53;;;25.53
12430;BMP280;6279;42.192;24.326;2023-07-16T01:05:36;99169.09;;;25.47
12430;BMP280;6279;42.192;24.326;2023-07-16T01:08:07;99174.16;;;25.44
12430;BMP280;6279;42.192;24.326;2023-07-16T01:10:33;99172.56;;;25.48
12430;BMP280;6279;42.192;24.326;2023-07-16T01:12:59;99184.25;;;25.42
12430;BMP280;6279;42.192;24.326;2023-07-16T01:15:25;99182.09;;;25.39
12430;BMP280;6279;42.192;24.326;2023-07-16T01:17:50;99179.47;;;25.44
12430;BMP280;6279;42.192;24.326;2023-07-16T01:20:16;99176.00;;;25.43
12430;BMP280;6279;42.192;24.326;2023-07-16T01:30:40;99192.38;;;25.30
12430;BMP280;6279;42.192;24.326;2023-07-16T01:33:10;99176.94;;;25.28
12430;BMP280;6279;42.192;24.326;2023-07-16T01:35:36;99176.69;;;25.29
12430;BMP280;6279;42.192;24.326;2023-07-16T01:38:03;99170.81;;;25.27
12430;BMP280;6279;42.192;24.326;2023-07-16T01:40:30;99171.84;;;25.21
12430;BMP280;6279;42.192;24.326;2023-07-16T01:42:55;99178.72;;;25.17
12430;BMP280;6279;42.192;24.326;2023-07-16T01:45:20;99185.09;;;25.16
12430;BMP280;6279;42.192;24.326;2023-07-16T01:50:30;99179.19;;;25.09
12430;BMP280;6279;42.192;24.326;2023-07-16T01:52:55;99184.47;;;25.05
12430;BMP280;6279;42.192;24.326;2023-07-16T01:55:21;99186.63;;;25.08
12430;BMP280;6279;42.192;24.326;2023-07-16T01:57:46;99188.22;;;25.08
12430;BMP280;6279;42.192;24.326;2023-07-16T02:00:11;99182.25;;;24.97
12430;BMP280;6279;42.192;24.326;2023-07-16T02:02:37;99182.81;;;24.99
12430;BMP280;6279;42.192;24.326;2023-07-16T02:05:03;99184.41;;;25.00
12430;BMP280;6279;42.192;24.326;2023-07-16T02:07:29;99179.88;;;25.00
12430;BMP280;6279;42.192;24.326;2023-07-16T02:09:54;99184.66;;;24.98
12430;BMP280;6279;42.192;24.326;2023-07-16T02:12:19;99181.22;;;24.98
12430;BMP280;6279;42.192;24.326;2023-07-16T02:14:45;99179.88;;;25.00
12430;BMP280;6279;42.192;24.326;2023-07-16T02:17:10;99176.69;;;24.98
12430;BMP280;6279;42.192;24.326;2023-07-16T02:19:35;99178.28;;;24.99
12430;BMP280;6279;42.192;24.326;2023-07-16T02:22:01;99178.00;;;24.96
12430;BMP280;6279;42.192;24.326;2023-07-16T02:24:26;99183.56;;;24.94
12430;BMP280;6279;42.192;24.326;2023-07-16T02:26:52;99185.41;;;24.89
12430;BMP280;6279;42.192;24.326;2023-07-16T02:29:17;99181.63;;;24.85
12430;BMP280;6279;42.192;24.326;2023-07-16T02:31:42;99186.13;;;24.85
12430;BMP280;6279;42.192;24.326;2023-07-16T02:34:11;99185.56;;;24.78
12430;BMP280;6279;42.192;24.326;2023-07-16T02:36:36;99182.59;;;24.74
12430;BMP280;6279;42.192;24.326;2023-07-16T02:39:02;99194.28;;;24.73
12430;BMP280;6279;42.192;24.326;2023-07-16T02:41:27;99189.47;;;24.70
12430;BMP280;6279;42.192;24.326;2023-07-16T02:44:00;99192.84;;;24.66
12430;BMP280;6279;42.192;24.326;2023-07-16T02:46:26;99198.97;;;24.66
12430;BMP280;6279;42.192;24.326;2023-07-16T02:48:51;99187.78;;;24.64
12430;BMP280;6279;42.192;24.326;2023-07-16T02:51:16;99190.66;;;24.58
12430;BMP280;6279;42.192;24.326;2023-07-16T02:53:42;99195.91;;;24.53
12430;BMP280;6279;42.192;24.326;2023-07-16T02:56:07;99201.03;;;24.60
12430;BMP280;6279;42.192;24.326;2023-07-16T02:58:34;99196.75;;;24.59
12430;BMP280;6279;42.192;24.326;2023-07-16T03:00:59;99193.97;;;24.49
12430;BMP280;6279;42.192;24.326;2023-07-16T03:03:24;99195.03;;;24.48
12430;BMP280;6279;42.192;24.326;2023-07-16T03:05:50;99193.81;;;24.55
12430;BMP280;6279;42.192;24.326;2023-07-16T03:08:15;99196.47;;;24.55
12430;BMP280;6279;42.192;24.326;2023-07-16T03:10:40;99198.13;;;24.61
12430;BMP280;6279;42.192;24.326;2023-07-16T03:13:06;99200.28;;;24.64
12430;BMP280;6279;42.192;24.326;2023-07-16T03:15:31;99199.47;;;24.63
12430;BMP280;6279;42.192;24.326;2023-07-16T03:17:57;99210.34;;;24.62
12430;BMP280;6279;42.192;24.326;2023-07-16T03:20:22;99198.50;;;24.69
12430;BMP280;6279;42.192;24.326;2023-07-16T03:22:47;99200.16;;;24.75
12430;BMP280;6279;42.192;24.326;2023-07-16T03:25:13;99214.53;;;24.74
12430;BMP280;6279;42.192;24.326;2023-07-16T03:27:38;99195.63;;;24.76
12430;BMP280;6279;42.192;24.326;2023-07-16T03:30:04;99203.13;;;24.79
12430;BMP280;6279;42.192;24.326;2023-07-16T03:32:30;99200.00;;;24.86
12430;BMP280;6279;42.192;24.326;2023-07-16T03:34:55;99199.22;;;24.86
12430;BMP280;6279;42.192;24.326;2023-07-16T03:37:20;99207.13;;;24.81
12430;BMP280;6279;42.192;24.326;2023-07-16T03:39:46;99205.91;;;24.67
12430;BMP280;6279;42.192;24.326;2023-07-16T03:42:11;99207.75;;;24.67
12430;BMP280;6279;42.192;24.326;2023-07-16T03:44:36;99209.78;;;24.81
12430;BMP280;6279;42.192;24.326;2023-07-16T03:47:02;99212.09;;;24.99
12430;BMP280;6279;42.192;24.326;2023-07-16T03:49:27;99212.09;;;24.99
12430;BMP280;6279;42.192;24.326;2023-07-16T03:51:53;99217.50;;;25.08
12430;BMP280;6279;42.192;24.326;2023-07-16T03:54:18;99221.25;;;25.12
12430;BMP280;6279;42.192;24.326;2023-07-16T03:56:43;99221.78;;;25.09
12430;BMP280;6279;42.192;24.326;2023-07-16T03:59:09;99225.81;;;25.17
12430;BMP280;6279;42.192;24.326;2023-07-16T04:01:34;99226.63;;;25.17
12430;BMP280;6279;42.192;24.326;2023-07-16T04:04:00;99219.25;;;25.24
12430;BMP280;6279;42.192;24.326;2023-07-16T04:06:25;99222.53;;;25.36
12430;BMP280;6279;42.192;24.326;2023-07-16T04:08:50;99227.94;;;25.41
12430;BMP280;6279;42.192;24.326;2023-07-16T04:11:16;99223.16;;;25.43
12430;BMP280;6279;42.192;24.326;2023-07-16T04:13:41;99227.44;;;25.49
12430;BMP280;6279;42.192;24.326;2023-07-16T04:16:07;99226.94;;;25.56
12430;BMP280;6279;42.192;24.326;2023-07-16T04:18:32;99228.34;;;25.59
12430;BMP280;6279;42.192;24.326;2023-07-16T04:20:57;99232.91;;;25.68
12430;BMP280;6279;42.192;24.326;2023-07-16T04:23:23;99233.81;;;25.88
12430;BMP280;6279;42.192;24.326;2023-07-16T04:25:53;99234.72;;;25.98
12430;BMP280;6279;42.192;24.326;2023-07-16T04:28:19;99234.72;;;25.98
12430;BMP280;6279;42.192;24.326;2023-07-16T04:30:44;99233.63;;;25.95
12430;BMP280;6279;42.192;24.326;2023-07-16T04:33:10;99232.63;;;26.10
12430;BMP280;6279;42.192;24.326;2023-07-16T04:35:35;99234.31;;;26.21
12430;BMP280;6279;42.192;24.326;2023-07-16T04:38:00;99234.34;;;26.31
12430;BMP280;6279;42.192;24.326;2023-07-16T04:40:28;99230.38;;;26.43
12430;BMP280;6279;42.192;24.326;2023-07-16T04:42:54;99239.28;;;26.63
12430;BMP280;6279;42.192;24.326;2023-07-16T04:45:19;99245.19;;;26.75
12430;BMP280;6279;42.192;24.326;2023-07-16T04:47:45;99250.56;;;26.99
12430;BMP280;6279;42.192;24.326;2023-07-16T04:50:10;99243.91;;;27.11
12430;BMP280;6279;42.192;24.326;2023-07-16T04:52:37;99244.78;;;27.41
12430;BMP280;6279;42.192;24.326;2023-07-16T04:55:03;99248.78;;;27.78
12430;BMP280;6279;42.192;24.326;2023-07-16T04:57:29;99247.41;;;28.67
12430;BMP280;6279;42.192;24.326;2023-07-16T04:59:54;99256.88;;;30.00
12430;BMP280;6279;42.192;24.326;2023-07-16T05:02:19;99249.59;;;30.88
12430;BMP280;6279;42.192;24.326;2023-07-16T05:04:45;99256.06;;;31.41
12430;BMP280;6279;42.192;24.326;2023-07-16T05:07:13;99265.00;;;31.86
12430;BMP280;6279;42.192;24.326;2023-07-16T05:09:39;99267.59;;;31.91
12430;BMP280;6279;42.192;24.326;2023-07-16T05:12:04;99268.25;;;32.15
12430;BMP280;6279;42.192;24.326;2023-07-16T05:14:30;99270.47;;;31.95
12430;BMP280;6279;42.192;24.326;2023-07-16T05:16:56;99268.47;;;32.00
12430;BMP280;6279;42.192;24.326;2023-07-16T05:19:22;99263.97;;;31.82
12430;BMP280;6279;42.192;24.326;2023-07-16T05:21:47;99271.47;;;31.85
12430;BMP280;6279;42.192;24.326;2023-07-16T05:24:12;99269.53;;;31.73
12430;BMP280;6279;42.192;24.326;2023-07-16T05:26:38;99273.44;;;31.67
12430;BMP280;6279;42.192;24.326;2023-07-16T05:29:03;99268.69;;;31.59
12430;BMP280;6279;42.192;24.326;2023-07-16T05:31:29;99272.09;;;31.46
12430;BMP280;6279;42.192;24.326;2023-07-16T05:33:54;99270.53;;;31.76
12430;BMP280;6279;42.192;24.326;2023-07-16T05:36:20;99268.41;;;31.42
12430;BMP280;6279;42.192;24.326;2023-07-16T05:38:45;99267.78;;;31.32
12430;BMP280;6279;42.192;24.326;2023-07-16T05:41:10;99269.66;;;30.77
12430;BMP280;6279;42.192;24.326;2023-07-16T05:43:36;99268.13;;;30.89
12430;BMP280;6279;42.192;24.326;2023-07-16T05:46:01;99274.97;;;31.00
12430;BMP280;6279;42.192;24.326;2023-07-16T05:48:27;99270.91;;;31.21
12430;BMP280;6279;42.192;24.326;2023-07-16T05:50:52;99270.00;;;31.61
12430;BMP280;6279;42.192;24.326;2023-07-16T05:53:17;99275.56;;;31.96
12430;BMP280;6279;42.192;24.326;2023-07-16T05:55:43;99285.59;;;32.09
12430;BMP280;6279;42.192;24.326;2023-07-16T05:58:08;99282.16;;;31.59
12430;BMP280;6279;42.192;24.326;2023-07-16T06:00:34;99275.06;;;31.13
12430;BMP280;6279;42.192;24.326;2023-07-16T06:03:00;99281.59;;;31.07
12430;BMP280;6279;42.192;24.326;2023-07-16T06:05:26;99272.38;;;31.31
12430;BMP280;6279;42.192;24.326;2023-07-16T06:07:52;99276.28;;;31.21
12430;BMP280;6279;42.192;24.326;2023-07-16T06:10:17;99274.22;;;30.77
12430;BMP280;6279;42.192;24.326;2023-07-16T06:12:43;99266.59;;;31.02
12430;BMP280;6279;42.192;24.326;2023-07-16T06:15:08;99267.81;;;31.63
12430;BMP280;6279;42.192;24.326;2023-07-16T06:17:34;99262.72;;;31.93
12430;BMP280;6279;42.192;24.326;2023-07-16T06:19:59;99271.28;;;31.95
12430;BMP280;6279;42.192;24.326;2023-07-16T06:22:25;99260.28;;;32.10
12430;BMP280;6279;42.192;24.326;2023-07-16T06:24:50;99260.88;;;32.33
12430;BMP280;6279;42.192;24.326;2023-07-16T06:27:16;99262.78;;;32.72
12430;BMP280;6279;42.192;24.326;2023-07-16T06:29:41;99274.47;;;32.55
12430;BMP280;6279;42.192;24.326;2023-07-16T06:32:07;99265.84;;;32.53
12430;BMP280;6279;42.192;24.326;2023-07-16T06:34:32;99257.16;;;32.16
12430;BMP280;6279;42.192;24.326;2023-07-16T06:36:58;99254.53;;;31.53
12430;BMP280;6279;42.192;24.326;2023-07-16T06:39:23;99240.84;;;31.68
12430;BMP280;6279;42.192;24.326;2023-07-16T06:41:48;99240.56;;;31.96
12430;BMP280;6279;42.192;24.326;2023-07-16T06:44:15;99241.31;;;32.67
12430;BMP280;6279;42.192;24.326;2023-07-16T06:46:40;99245.38;;;33.26
12430;BMP280;6279;42.192;24.326;2023-07-16T06:49:06;99242.47;;;33.23
12430;BMP280;6279;42.192;24.326;2023-07-16T06:51:32;99243.97;;;33.72
12430;BMP280;6279;42.192;24.326;2023-07-16T06:53:59;99233.00;;;33.68
12430;BMP280;6279;42.192;24.326;2023-07-16T06:56:24;99238.75;;;33.75
12430;BMP280;6279;42.192;24.326;2023-07-16T06:58:49;99241.38;;;33.96
12430;BMP280;6279;42.192;24.326;2023-07-16T07:01:15;99235.28;;;34.13
12430;BMP280;6279;42.192;24.326;2023-07-16T07:03:40;99241.81;;;33.82
12430;BMP280;6279;42.192;24.326;2023-07-16T07:06:05;99240.69;;;33.40
12430;BMP280;6279;42.192;24.326;2023-07-16T07:08:31;99231.63;;;33.36
12430;BMP280;6279;42.192;24.326;2023-07-16T07:10:56;99245.19;;;33.95
12430;BMP280;6279;42.192;24.326;2023-07-16T07:13:22;99242.09;;;34.40
12430;BMP280;6279;42.192;24.326;2023-07-16T07:15:48;99247.34;;;34.07
12430;BMP280;6279;42.192;24.326;2023-07-16T07:18:13;99245.19;;;33.95
12430;BMP280;6279;42.192;24.326;2023-07-16T07:20:39;99238.19;;;34.54
12430;BMP280;6279;42.192;24.326;2023-07-16T07:23:05;99243.94;;;34.31
12430;BMP280;6279;42.192;24.326;2023-07-16T07:25:30;99232.19;;;34.74
12430;BMP280;6279;42.192;24.326;2023-07-16T07:27:56;99234.91;;;34.90
12430;BMP280;6279;42.192;24.326;2023-07-16T07:30:22;99233.31;;;35.64
12430;BMP280;6279;42.192;24.326;2023-07-16T07:32:47;99237.78;;;35.02
12430;BMP280;6279;42.192;24.326;2023-07-16T07:35:12;99234.84;;;34.57
12430;BMP280;6279;42.192;24.326;2023-07-16T07:37:38;99232.91;;;34.49
12430;BMP280;6279;42.192;24.326;2023-07-16T07:40:04;99231.63;;;34.47
12430;BMP280;6279;42.192;24.326;2023-07-16T07:42:29;99226.47;;;35.33
12430;BMP280;6279;42.192;24.326;2023-07-16T07:44:55;99227.44;;;35.04
12430;BMP280;6279;42.192;24.326;2023-07-16T07:47:20;99228.44;;;35.41
12430;BMP280;6279;42.192;24.326;2023-07-16T07:49:46;99231.44;;;35.48
12430;BMP280;6279;42.192;24.326;2023-07-16T07:52:11;99222.00;;;35.37
12430;BMP280;6279;42.192;24.326;2023-07-16T07:54:37;99227.91;;;35.31
12430;BMP280;6279;42.192;24.326;2023-07-16T07:57:03;99229.31;;;35.78
12430;BMP280;6279;42.192;24.326;2023-07-16T07:59:29;99230.22;;;35.99
12430;BMP280;6279;42.192;24.326;2023-07-16T08:01:55;99232.75;;;36.41
12430;BMP280;6279;42.192;24.326;2023-07-16T08:04:21;99224.34;;;37.62
12430;BMP280;6279;42.192;24.326;2023-07-16T08:06:46;99223.53;;;37.10
12430;BMP280;6279;42.192;24.326;2023-07-16T08:09:11;99227.34;;;36.61
12430;BMP280;6279;42.192;24.326;2023-07-16T08:11:37;99230.28;;;37.04
12430;BMP280;6279;42.192;24.326;2023-07-16T08:14:02;99233.75;;;37.65
12430;BMP280;6279;42.192;24.326;2023-07-16T08:16:28;99234.44;;;37.42
12430;BMP280;6279;42.192;24.326;2023-07-16T08:18:53;99229.41;;;35.98
12430;BMP280;6279;42.192;24.326;2023-07-16T08:21:19;99233.59;;;35.79
12430;BMP280;6279;42.192;24.326;2023-07-16T08:23:46;99226.00;;;36.10
12430;BMP280;6279;42.192;24.326;2023-07-16T08:26:12;99224.81;;;36.36
12430;BMP280;6279;42.192;24.326;2023-07-16T08:28:38;99216.19;;;36.90
12430;BMP280;6279;42.192;24.326;2023-07-16T08:31:03;99219.34;;;36.44
12430;BMP280;6279;42.192;24.326;2023-07-16T08:33:28;99220.56;;;37.03
12430;BMP280;6279;42.192;24.326;2023-07-16T08:35:54;99213.88;;;37.52
12430;BMP280;6279;42.192;24.326;2023-07-16T08:38:19;99211.31;;;38.82
12430;BMP280;6279;42.192;24.326;2023-07-16T08:40:46;99215.41;;;38.41
12430;BMP280;6279;42.192;24.326;2023-07-16T08:43:12;99218.72;;;39.20
12430;BMP280;6279;42.192;24.326;2023-07-16T08:45:40;99217.66;;;41.58
12430;BMP280;6279;42.192;24.326;2023-07-16T08:48:07;99213.94;;;41.48
12430;BMP280;6279;42.192;24.326;2023-07-16T08:50:35;99220.03;;;39.79
12430;BMP280;6279;42.192;24.326;2023-07-16T08:53:04;99210.91;;;41.53
12430;BMP280;6279;42.192;24.326;2023-07-16T08:55:29;99203.59;;;41.38
12430;BMP280;6279;42.192;24.326;2023-07-16T08:57:55;99211.75;;;41.56
12430;BMP280;6279;42.192;24.326;2023-07-16T09:00:21;99216.22;;;40.90
12430;BMP280;6279;42.192;24.326;2023-07-16T09:02:48;99208.13;;;41.90
12430;BMP280;6279;42.192;24.326;2023-07-16T09:05:14;99206.53;;;44.16
12430;BMP280;6279;42.192;24.326;2023-07-16T09:07:40;99202.16;;;43.66
12430;BMP280;6279;42.192;24.326;2023-07-16T09:10:06;99202.22;;;43.40
12430;BMP280;6279;42.192;24.326;2023-07-16T09:12:31;99205.34;;;43.71
12430;BMP280;6279;42.192;24.326;2023-07-16T09:14:57;99202.66;;;45.40
12430;BMP280;6279;42.192;24.326;2023-07-16T09:17:23;99196.59;;;44.44
12430;BMP280;6279;42.192;24.326;2023-07-16T09:19:52;99194.00;;;45.38
12430;BMP280;6279;42.192;24.326;2023-07-16T09:22:18;99190.53;;;46.98
12430;BMP280;6279;42.192;24.326;2023-07-16T09:24:48;99199.66;;;46.27
12430;BMP280;6279;42.192;24.326;2023-07-16T09:27:13;99188.25;;;44.83
12430;BMP280;6279;42.192;24.326;2023-07-16T09:29:39;99184.06;;;43.97
12430;BMP280;6279;42.192;24.326;2023-07-16T09:32:05;99181.44;;;44.60
12430;BMP280;6279;42.192;24.326;2023-07-16T09:34:31;99177.97;;;43.42
12430;BMP280;6279;42.192;24.326;2023-07-16T09:36:57;99179.28;;;41.52
12430;BMP280;6279;42.192;24.326;2023-07-16T09:39:24;99175.03;;;42.93
12430;BMP280;6279;42.192;24.326;2023-07-16T09:41:50;99162.38;;;43.14
12430;BMP280;6279;42.192;24.326;2023-07-16T09:44:16;99158.16;;;42.91
12430;BMP280;6279;42.192;24.326;2023-07-16T09:46:42;99156.75;;;42.46
12430;BMP280;6279;42.192;24.326;2023-07-16T09:49:08;99151.50;;;42.12
12430;BMP280;6279;42.192;24.326;2023-07-16T09:51:38;99148.31;;;42.07
12430;BMP280;6279;42.192;24.326;2023-07-16T09:54:05;99148.31;;;43.87
12430;BMP280;6279;42.192;24.326;2023-07-16T09:56:40;99140.31;;;45.75
12430;BMP280;6279;42.192;24.326;2023-07-16T09:59:13;99147.59;;;47.11
12430;BMP280;6279;42.192;24.326;2023-07-16T10:01:39;99148.16;;;46.27
12430;BMP280;6279;42.192;24.326;2023-07-16T10:04:18;99138.72;;;44.63
12430;BMP280;6279;42.192;24.326;2023-07-16T10:06:57;99140.88;;;43.48
12430;BMP280;6279;42.192;24.326;2023-07-16T10:09:50;99132.88;;;42.72
12430;BMP280;6279;42.192;24.326;2023-07-16T10:12:17;99137.97;;;41.75
12430;BMP280;6279;42.192;24.326;2023-07-16T10:17:33;99123.44;;;46.10
12430;BMP280;6279;42.192;24.326;2023-07-16T10:22:39;99121.06;;;45.75
12430;BMP280;6279;42.192;24.326;2023-07-16T10:25:22;99111.69;;;44.08
12430;BMP280;6279;42.192;24.326;2023-07-16T10:27:49;99111.44;;;42.48
12430;BMP280;6279;42.192;24.326;2023-07-16T10:30:15;99104.38;;;43.41
12430;BMP280;6279;42.192;24.326;2023-07-16T10:32:41;99099.22;;;44.18
12430;BMP280;6279;42.192;24.326;2023-07-16T10:35:07;99103.81;;;44.03
12430;BMP280;6279;42.192;24.326;2023-07-16T10:37:36;99096.72;;;43.17
12430;BMP280;6279;42.192;24.326;2023-07-16T10:40:03;99087.56;;;42.74
12430;BMP280;6279;42.192;24.326;2023-07-16T10:42:30;99087.91;;;43.77
12430;BMP280;6279;42.192;24.326;2023-07-16T10:45:00;99083.34;;;44.47
12430;BMP280;6279;42.192;24.326;2023-07-16T10:47:30;99081.97;;;43.68
12430;BMP280;6279;42.192;24.326;2023-07-16T10:49:56;99076.13;;;42.98
12430;BMP280;6279;42.192;24.326;2023-07-16T10:52:22;99078.75;;;42.88
12430;BMP280;6279;42.192;24.326;2023-07-16T10:54:49;99069.59;;;43.45
12430;BMP280;6279;42.192;24.326;2023-07-16T10:57:15;99065.22;;;43.01
12430;BMP280;6279;42.192;24.326;2023-07-16T10:59:42;99069.66;;;41.75
12430;BMP280;6279;42.192;24.326;2023-07-16T11:02:11;99054.66;;;42.39
12430;BMP280;6279;42.192;24.326;2023-07-16T11:04:37;99066.19;;;41.56
12430;BMP280;6279;42.192;24.326;2023-07-16T11:07:09;99070.63;;;41.42
12430;BMP280;6279;42.192;24.326;2023-07-16T11:09:48;99064.53;;;40.18
12430;BMP280;6279;42.192;24.326;2023-07-16T11:12:16;99057.78;;;40.65
12430;BMP280;6279;42.192;24.326;2023-07-16T11:14:44;99058.53;;;41.21
12430;BMP280;6279;42.192;24.326;2023-07-16T11:17:10;99045.00;;;40.68
12430;BMP280;6279;42.192;24.326;2023-07-16T11:19:36;99051.03;;;39.61
12430;BMP280;6279;42.192;24.326;2023-07-16T11:22:04;99038.06;;;39.70
12430;BMP280;6279;42.192;24.326;2023-07-16T11:24:43;99038.41;;;39.53
12430;BMP280;6279;42.192;24.326;2023-07-16T11:27:20;99040.59;;;39.32
12430;BMP280;6279;42.192;24.326;2023-07-16T11:32:12;99037.75;;;38.21
12430;BMP280;6279;42.192;24.326;2023-07-16T11:34:37;99035.44;;;38.74
12430;BMP280;6279;42.192;24.326;2023-07-16T11:37:10;99028.81;;;39.29
12430;BMP280;6279;42.192;24.326;2023-07-16T11:39:36;99021.63;;;40.15
12430;BMP280;6279;42.192;24.326;2023-07-16T11:42:02;99020.66;;;39.89
12430;BMP280;6279;42.192;24.326;2023-07-16T11:44:36;99020.97;;;39.12
12430;BMP280;6279;42.192;24.326;2023-07-16T11:47:03;99018.34;;;39.00
12430;BMP280;6279;42.192;24.326;2023-07-16T11:49:28;99020.94;;;39.54
12430;BMP280;6279;42.192;24.326;2023-07-16T11:51:54;99015.00;;;39.82
12430;BMP280;6279;42.192;24.326;2023-07-16T11:54:19;99019.94;;;39.62
12430;BMP280;6279;42.192;24.326;2023-07-16T11:56:44;99014.78;;;39.57
12430;BMP280;6279;42.192;24.326;2023-07-16T11:59:12;99013.28;;;39.75
12430;BMP280;6279;42.192;24.326;2023-07-16T12:01:38;99011.81;;;40.11
12430;BMP280;6279;42.192;24.326;2023-07-16T12:04:03;99004.84;;;39.79
12430;BMP280;6279;42.192;24.326;2023-07-16T12:06:29;99007.75;;;39.26
12430;BMP280;6279;42.192;24.326;2023-07-16T12:08:54;99018.06;;;38.90
12430;BMP280;6279;42.192;24.326;2023-07-16T12:11:20;99011.63;;;39.40
12430;BMP280;6279;42.192;24.326;2023-07-16T12:13:46;99012.81;;;38.70
12430;BMP280;6279;42.192;24.326;2023-07-16T12:16:11;99017.66;;;38.49
12430;BMP280;6279;42.192;24.326;2023-07-16T12:18:37;99011.56;;;38.94
12430;BMP280;6279;42.192;24.326;2023-07-16T12:21:02;99008.56;;;39.41
12430;BMP280;6279;42.192;24.326;2023-07-16T12:23:27;99017.63;;;38.88
12430;BMP280;6279;42.192;24.326;2023-07-16T12:25:53;99014.31;;;38.29
12430;BMP280;6279;42.192;24.326;2023-07-16T12:28:18;99001.25;;;37.84
12430;BMP280;6279;42.192;24.326;2023-07-16T12:30:44;98983.59;;;37.54
12430;BMP280;6279;42.192;24.326;2023-07-16T12:33:09;98994.91;;;37.45
12430;BMP280;6279;42.192;24.326;2023-07-16T12:35:34;98984.84;;;37.69
12430;BMP280;6279;42.192;24.326;2023-07-16T12:38:00;98986.44;;;37.70
12430;BMP280;6279;42.192;24.326;2023-07-16T12:40:27;98985.34;;;37.59
12430;BMP280;6279;42.192;24.326;2023-07-16T12:42:53;98989.00;;;38.13
12430;BMP280;6279;42.192;24.326;2023-07-16T12:45:18;98994.47;;;37.78
12430;BMP280;6279;42.192;24.326;2023-07-16T12:47:44;98987.13;;;37.67
12430;BMP280;6279;42.192;24.326;2023-07-16T12:50:09;98984.44;;;36.88
12430;BMP280;6279;42.192;24.326;2023-07-16T12:52:34;98977.28;;;37.27
12430;BMP280;6279;42.192;24.326;2023-07-16T12:55:00;98963.94;;;37.69
12430;BMP280;6279;42.192;24.326;2023-07-16T12:57:26;98972.59;;;37.98
12430;BMP280;6279;42.192;24.326;2023-07-16T12:59:51;98969.41;;;38.08
12430;BMP280;6279;42.192;24.326;2023-07-16T13:02:16;98967.94;;;37.98
12430;BMP280;6279;42.192;24.326;2023-07-16T13:04:42;98960.59;;;37.99
12430;BMP280;6279;42.192;24.326;2023-07-16T13:07:07;98974.06;;;38.07
12430;BMP280;6279;42.192;24.326;2023-07-16T13:09:33;98967.72;;;38.15
12430;BMP280;6279;42.192;24.326;2023-07-16T13:11:59;98964.09;;;37.99
12430;BMP280;6279;42.192;24.326;2023-07-16T13:14:26;98969.53;;;37.99
12430;BMP280;6279;42.192;24.326;2023-07-16T13:16:51;98963.59;;;38.21
12430;BMP280;6279;42.192;24.326;2023-07-16T13:19:16;98962.53;;;37.87
12430;BMP280;6279;42.192;24.326;2023-07-16T13:21:42;98958.84;;;37.68
12430;BMP280;6279;42.192;24.326;2023-07-16T13:24:07;98960.91;;;37.59
12430;BMP280;6279;42.192;24.326;2023-07-16T13:26:33;98955.34;;;37.44
12430;BMP280;6279;42.192;24.326;2023-07-16T13:28:58;98956.47;;;37.78
12430;BMP280;6279;42.192;24.326;2023-07-16T13:31:24;98955.34;;;37.67
12430;BMP280;6279;42.192;24.326;2023-07-16T13:33:49;98949.91;;;37.44
12430;BMP280;6279;42.192;24.326;2023-07-16T13:36:14;98947.41;;;37.51
12430;BMP280;6279;42.192;24.326;2023-07-16T13:38:40;98941.22;;;37.38
12430;BMP280;6279;42.192;24.326;2023-07-16T13:41:05;98942.44;;;37.52
12430;BMP280;6279;42.192;24.326;2023-07-16T13:43:31;98948.66;;;37.06
12430;BMP280;6279;42.192;24.326;2023-07-16T13:45:56;98945.47;;;37.04
12430;BMP280;6279;42.192;24.326;2023-07-16T13:48:21;98946.72;;;37.07
12430;BMP280;6279;42.192;24.326;2023-07-16T13:50:47;98940.41;;;37.03
12430;BMP280;6279;42.192;24.326;2023-07-16T13:53:12;98936.19;;;36.93
12430;BMP280;6279;42.192;24.326;2023-07-16T13:55:38;98929.69;;;37.41
12430;BMP280;6279;42.192;24.326;2023-07-16T13:58:03;98925.34;;;37.52
12430;BMP280;6279;42.192;24.326;2023-07-16T14:00:28;98931.13;;;37.51
12430;BMP280;6279;42.192;24.326;2023-07-16T14:02:54;98923.78;;;37.63
12430;BMP280;6279;42.192;24.326;2023-07-16T14:05:19;98919.06;;;37.60
12430;BMP280;6279;42.192;24.326;2023-07-16T14:07:46;98922.19;;;37.50
12430;BMP280;6279;42.192;24.326;2023-07-16T14:10:12;98928.88;;;37.29
12430;BMP280;6279;42.192;24.326;2023-07-16T14:12:37;98926.84;;;37.03
12430;BMP280;6279;42.192;24.326;2023-07-16T14:15:03;98923.88;;;36.84
12430;BMP280;6279;42.192;24.326;2023-07-16T14:17:29;98939.13;;;36.57
12430;BMP280;6279;42.192;24.326;2023-07-16T14:19:54;98920.72;;;36.62
12430;BMP280;6279;42.192;24.326;2023-07-16T14:22:23;98919.91;;;36.82